createdAt,value
2022-10-20T00:01:18.093Z,12.90
2022-10-20T00:03:45.835Z,13.23
2022-10-20T00:06:16.213Z,12.80
2022-10-20T00:08:44.325Z,13.17
2022-10-20T00:11:13.448Z,12.63
2022-10-20T00:13:41.976Z,12.83
2022-10-20T00:16:09.625Z,11.77
2022-10-20T00:18:36.624Z,12.80
2022-10-20T00:21:10.473Z,13.77
2022-10-20T00:23:37.445Z,12.73
2022-10-20T00:26:11.679Z,12.37
2022-10-20T00:28:38.661Z,13.47
2022-10-20T00:31:07.113Z,12.70
2022-10-20T00:33:34.776Z,13.27
2022-10-20T00:36:05.558Z,12.53
2022-10-20T00:38:33.026Z,12.33
2022-10-20T00:41:00.315Z,12.07
2022-10-20T00:43:57.290Z,12.63
2022-10-20T00:46:39.856Z,12.83
2022-10-20T00:49:36.155Z,13.67
2022-10-20T00:52:03.237Z,13.53
2022-10-20T00:54:30.939Z,13.57
2022-10-20T00:56:59.600Z,14.90
2022-10-20T00:59:32.189Z,14.40
2022-10-20T01:02:01.670Z,14.90
2022-10-20T01:04:31.522Z,13.77
2022-10-20T01:06:59.369Z,13.60
2022-10-20T01:09:26.730Z,13.03
2022-10-20T01:12:20.476Z,13.03
2022-10-20T01:15:17.835Z,13.13
2022-10-20T01:18:13.285Z,13.13
2022-10-20T01:21:27.431Z,13.17
2022-10-20T01:24:57.628Z,12.50
2022-10-20T01:27:33.123Z,12.97
2022-10-20T01:30:19.043Z,12.87
2022-10-20T01:33:04.365Z,11.77
2022-10-20T01:35:52.457Z,12.33
2022-10-20T01:38:25.304Z,13.20
2022-10-20T01:41:06.027Z,12.90
2022-10-20T01:43:37.975Z,12.90
2022-10-20T01:46:07.202Z,13.77
2022-10-20T01:48:36.048Z,14.00
2022-10-20T01:51:04.370Z,13.23
2022-10-20T01:53:31.365Z,13.53
2022-10-20T01:56:00.859Z,13.80
2022-10-20T01:59:08.066Z,12.90
2022-10-20T02:02:11.581Z,12.63
2022-10-20T02:05:07.754Z,12.90
2022-10-20T02:07:35.634Z,13.50
2022-10-20T02:10:25.726Z,13.00
2022-10-20T02:12:59.071Z,13.53
2022-10-20T02:15:28.231Z,13.10
2022-10-20T02:18:02.867Z,12.97
2022-10-20T02:20:31.635Z,13.37
2022-10-20T02:23:00.345Z,13.20
2022-10-20T02:25:29.867Z,11.47
2022-10-20T02:30:31.496Z,12.47
2022-10-20T02:32:58.399Z,12.33
2022-10-20T02:35:33.036Z,11.30
2022-10-20T02:38:01.163Z,11.93
2022-10-20T02:40:28.686Z,11.80
2022-10-20T02:42:55.708Z,11.67
2022-10-20T02:45:22.619Z,12.57
2022-10-20T02:47:49.516Z,12.13
2022-10-20T02:50:17.134Z,12.43
2022-10-20T02:52:44.096Z,12.47
2022-10-20T02:55:11.092Z,14.07
2022-10-20T02:57:38.510Z,12.77
2022-10-20T03:00:08.092Z,12.63
2022-10-20T03:02:35.056Z,15.43
2022-10-20T03:05:02.074Z,13.97
2022-10-20T03:07:29.027Z,13.93
2022-10-20T03:09:55.990Z,13.27
2022-10-20T03:12:22.938Z,14.53
2022-10-20T03:14:49.856Z,13.33
2022-10-20T03:17:16.807Z,11.47
2022-10-20T03:19:43.748Z,12.33
2022-10-20T03:22:10.776Z,13.77
2022-10-20T03:24:37.846Z,12.33
2022-10-20T03:27:04.771Z,12.10
2022-10-20T03:29:31.870Z,12.37
2022-10-20T03:31:58.994Z,11.50
2022-10-20T03:34:26.197Z,12.57
2022-10-20T03:36:53.484Z,13.17
2022-10-20T03:39:20.511Z,12.37
2022-10-20T03:41:47.692Z,12.03
2022-10-20T03:44:14.847Z,11.73
2022-10-20T03:46:41.838Z,10.93
2022-10-20T03:49:08.861Z,11.53
2022-10-20T03:51:35.984Z,13.10
2022-10-20T03:54:02.974Z,13.57
2022-10-20T03:56:30.106Z,14.20
2022-10-20T03:58:57.173Z,14.00
2022-10-20T04:01:30.762Z,14.43
2022-10-20T04:03:58.267Z,13.67
2022-10-20T04:06:25.216Z,14.77
2022-10-20T04:08:52.148Z,13.80
2022-10-20T04:11:19.130Z,14.87
2022-10-20T04:13:46.090Z,15.10
2022-10-20T04:16:13.030Z,14.37
2022-10-20T04:18:39.974Z,14.83
2022-10-20T04:21:06.921Z,14.33
2022-10-20T04:23:33.832Z,14.03
2022-10-20T04:26:00.828Z,12.93
2022-10-20T04:28:27.757Z,13.40
2022-10-20T04:30:54.812Z,13.60
2022-10-20T04:33:21.728Z,14.63
2022-10-20T04:38:20.422Z,14.50
2022-10-20T04:40:57.155Z,13.90
2022-10-20T04:43:25.937Z,13.37
2022-10-20T04:45:59.900Z,14.43
2022-10-20T04:48:28.534Z,15.33
2022-10-20T04:51:06.649Z,15.03
2022-10-20T04:53:33.824Z,14.10
2022-10-20T04:56:01.192Z,14.53
2022-10-20T04:58:28.462Z,14.87
2022-10-20T05:01:01.136Z,14.57
2022-10-20T05:03:28.064Z,13.83
2022-10-20T05:05:55.029Z,13.70
2022-10-20T05:08:21.901Z,13.37
2022-10-20T05:10:48.820Z,13.70
2022-10-20T05:13:15.753Z,12.53
2022-10-20T05:15:42.742Z,13.53
2022-10-20T05:18:09.631Z,13.77
2022-10-20T05:20:41.212Z,13.50
2022-10-20T05:23:18.312Z,13.27
2022-10-20T05:25:45.245Z,13.47
2022-10-20T05:28:12.287Z,14.23
2022-10-20T05:30:39.443Z,16.53
2022-10-20T05:33:06.409Z,14.70
2022-10-20T05:35:33.323Z,13.57
2022-10-20T05:38:00.415Z,13.80
2022-10-20T05:40:27.362Z,13.80
2022-10-20T05:42:54.468Z,14.27
2022-10-20T05:45:21.411Z,13.37
2022-10-20T05:47:48.300Z,12.83
2022-10-20T05:50:15.257Z,12.07
2022-10-20T05:52:42.202Z,13.10
2022-10-20T05:55:09.981Z,12.87
2022-10-20T05:57:36.905Z,12.77
2022-10-20T06:00:05.541Z,12.50
2022-10-20T06:02:32.513Z,12.17
2022-10-20T06:04:59.443Z,11.90
2022-10-20T06:07:26.436Z,11.97
2022-10-20T06:09:53.410Z,12.27
2022-10-20T06:12:20.506Z,12.77
2022-10-20T06:14:47.397Z,13.10
2022-10-20T06:17:14.312Z,11.53
2022-10-20T06:19:41.256Z,13.63
2022-10-20T06:22:08.204Z,12.20
2022-10-20T06:24:35.408Z,13.33
2022-10-20T06:27:02.312Z,12.80
2022-10-20T06:29:29.258Z,12.43
2022-10-20T06:31:56.859Z,12.70
2022-10-20T06:34:25.210Z,11.97
2022-10-20T06:36:52.820Z,11.67
2022-10-20T06:39:24.177Z,12.57
2022-10-20T06:41:54.024Z,12.77
2022-10-20T06:44:23.999Z,12.53
2022-10-20T06:46:54.600Z,13.87
2022-10-20T06:49:22.280Z,12.97
2022-10-20T06:51:50.368Z,11.50
2022-10-20T06:54:17.656Z,12.27
2022-10-20T06:56:44.686Z,12.77
2022-10-20T06:59:12.063Z,12.63
2022-10-20T07:01:39.756Z,13.30
2022-10-20T07:04:11.762Z,13.33
2022-10-20T07:06:41.631Z,13.73
2022-10-20T07:09:18.148Z,14.93
2022-10-20T07:11:45.474Z,13.67
2022-10-20T07:14:14.009Z,13.40
2022-10-20T07:16:41.454Z,13.90
2022-10-20T07:19:08.416Z,13.33
2022-10-20T07:21:38.351Z,13.50
2022-10-20T07:24:09.526Z,13.07
2022-10-20T07:26:40.076Z,13.50
2022-10-20T07:29:07.580Z,13.33
2022-10-20T07:31:43.056Z,12.87
2022-10-20T07:34:25.097Z,12.73
2022-10-20T07:36:53.706Z,14.20
2022-10-20T07:39:22.307Z,12.27
2022-10-20T07:41:49.538Z,12.77
2022-10-20T07:44:17.472Z,12.90
2022-10-20T07:46:45.108Z,12.18
2022-10-20T07:51:59.120Z,12.10
2022-10-20T07:54:26.104Z,12.43
2022-10-20T07:56:53.146Z,12.80
2022-10-20T07:59:20.102Z,14.60
2022-10-20T08:01:47.437Z,12.17
2022-10-20T08:04:14.439Z,12.17
2022-10-20T08:06:41.446Z,12.10
2022-10-20T08:09:08.506Z,12.07
2022-10-20T08:11:39.251Z,12.15
2022-10-20T08:14:06.275Z,12.38
2022-10-20T08:16:42.962Z,11.55
2022-10-20T08:19:15.748Z,10.90
2022-10-20T08:21:42.643Z,10.88
2022-10-20T08:24:09.663Z,11.07
2022-10-20T08:26:36.560Z,11.30
2022-10-20T08:29:03.561Z,10.57
2022-10-20T08:31:30.456Z,10.32
2022-10-20T08:33:57.415Z,10.63
2022-10-20T08:36:24.658Z,11.00
2022-10-20T08:38:51.725Z,11.05
2022-10-20T08:41:23.339Z,12.43
2022-10-20T08:43:54.492Z,11.55
2022-10-20T08:46:34.523Z,11.77
2022-10-20T08:49:04.076Z,11.73
2022-10-20T08:51:37.244Z,10.88
2022-10-20T08:54:12.115Z,12.48
2022-10-20T08:56:39.150Z,12.77
2022-10-20T08:59:29.935Z,11.98
2022-10-20T09:01:58.343Z,12.55
2022-10-20T09:04:38.037Z,12.40
2022-10-20T09:07:38.553Z,23.95
2022-10-20T09:10:56.330Z,12.73
2022-10-20T09:13:32.499Z,12.73
2022-10-20T09:16:06.139Z,12.15
2022-10-20T09:18:34.594Z,12.60
2022-10-20T09:21:21.630Z,12.57
2022-10-20T09:24:04.054Z,11.63
2022-10-20T09:29:39.101Z,12.30
2022-10-20T09:32:51.165Z,11.90
2022-10-20T09:35:32.326Z,11.55
2022-10-20T09:38:10.601Z,10.45
2022-10-20T09:40:45.702Z,10.30
2022-10-20T09:43:18.384Z,10.40
2022-10-20T09:45:58.722Z,11.07
2022-10-20T09:48:40.036Z,11.75
2022-10-20T09:51:28.213Z,12.30
2022-10-20T09:54:08.276Z,12.55
2022-10-20T09:56:41.698Z,12.05
2022-10-20T09:59:36.554Z,12.88
2022-10-20T10:02:14.360Z,13.13
2022-10-20T10:04:48.310Z,13.48
2022-10-20T10:07:27.492Z,13.85
2022-10-20T10:10:17.976Z,13.77
2022-10-20T10:12:56.638Z,13.32
2022-10-20T10:15:23.543Z,13.20
2022-10-20T10:17:51.297Z,13.43
2022-10-20T10:20:18.106Z,14.02
2022-10-20T10:22:45.198Z,13.27
2022-10-20T10:25:25.432Z,13.63
2022-10-20T10:28:08.922Z,13.13
2022-10-20T10:30:39.032Z,11.43
2022-10-20T10:33:29.072Z,12.05
2022-10-20T10:35:56.923Z,11.45
2022-10-20T10:38:23.968Z,11.13
2022-10-20T10:41:19.984Z,12.43
2022-10-20T10:44:00.492Z,11.55
2022-10-20T10:46:37.010Z,10.43
2022-10-20T10:49:31.341Z,10.40
2022-10-20T10:52:13.146Z,10.07
2022-10-20T10:55:43.647Z,10.18
2022-10-20T10:58:43.152Z,10.10
2022-10-20T11:01:40.455Z,10.30
2022-10-20T11:04:40.586Z,9.50
2022-10-20T11:07:25.852Z,10.00
2022-10-20T11:10:13.034Z,9.45
2022-10-20T11:13:01.268Z,8.52
2022-10-20T11:15:43.648Z,8.48
2022-10-20T11:18:31.950Z,8.40
2022-10-20T11:21:37.403Z,8.30
2022-10-20T11:24:26.493Z,7.90
2022-10-20T11:27:03.296Z,8.07
2022-10-20T11:29:34.423Z,7.85
2022-10-20T11:32:12.383Z,7.65
2022-10-20T11:35:03.331Z,6.93
2022-10-20T11:37:41.424Z,6.38
2022-10-20T11:40:11.347Z,5.70
2022-10-20T11:42:52.972Z,5.30
2022-10-20T11:45:49.976Z,4.93
2022-10-20T11:48:49.756Z,4.50
2022-10-20T11:51:31.934Z,4.60
2022-10-20T11:54:16.920Z,4.50
2022-10-20T11:57:04.351Z,4.53
2022-10-20T11:59:42.948Z,3.90
2022-10-20T12:02:30.911Z,4.50
2022-10-20T12:05:51.355Z,3.70
2022-10-20T12:08:39.913Z,4.13
2022-10-20T12:11:30.320Z,4.20
2022-10-20T12:14:15.132Z,3.70
2022-10-20T12:16:54.168Z,4.32
2022-10-20T12:19:36.100Z,4.00
2022-10-20T12:22:13.857Z,3.72
2022-10-20T12:24:42.921Z,3.65
2022-10-20T12:27:09.788Z,3.63
2022-10-20T12:29:36.615Z,3.70
2022-10-20T12:32:24.008Z,3.40
2022-10-20T12:34:58.220Z,3.65
2022-10-20T12:37:25.053Z,3.28
2022-10-20T12:39:55.296Z,3.40
2022-10-20T12:42:31.840Z,3.42
2022-10-20T12:45:07.796Z,3.50
2022-10-20T12:47:37.373Z,3.90
2022-10-20T12:50:40.611Z,3.67
2022-10-20T12:53:24.557Z,3.90
2022-10-20T12:56:10.729Z,3.33
2022-10-20T12:58:40.841Z,3.40
2022-10-20T13:01:10.247Z,3.67
2022-10-20T13:03:46.837Z,3.25
2022-10-20T13:06:22.790Z,3.78
2022-10-20T13:09:07.231Z,3.40
2022-10-20T13:11:40.859Z,3.08
2022-10-20T13:14:14.130Z,3.05
2022-10-20T13:16:51.279Z,3.00
2022-10-20T13:19:30.602Z,2.80
2022-10-20T13:21:57.939Z,3.25
2022-10-20T13:24:33.785Z,3.15
2022-10-20T13:27:04.298Z,3.40
2022-10-20T13:29:39.742Z,3.33
2022-10-20T13:32:33.145Z,3.20
2022-10-20T13:35:28.127Z,2.95
2022-10-20T13:38:31.600Z,3.72
2022-10-20T13:41:23.755Z,2.95
2022-10-20T13:44:09.866Z,3.30
2022-10-20T13:46:51.835Z,2.90
2022-10-20T13:49:59.423Z,2.83
2022-10-20T13:52:33.223Z,2.58
2022-10-20T13:55:05.049Z,2.88
2022-10-20T13:57:34.214Z,2.70
2022-10-20T14:00:18.469Z,2.58
2022-10-20T14:03:00.666Z,2.80
2022-10-20T14:05:31.574Z,2.75
2022-10-20T14:08:04.745Z,3.03
2022-10-20T14:10:54.018Z,2.50
2022-10-20T14:13:26.737Z,2.53
2022-10-20T14:16:04.297Z,2.95
2022-10-20T14:18:39.349Z,2.47
2022-10-20T14:21:18.351Z,2.58
2022-10-20T14:23:48.780Z,2.38
2022-10-20T14:26:21.390Z,2.70
2022-10-20T14:28:51.476Z,2.65
2022-10-20T14:31:22.625Z,2.10
2022-10-20T14:33:54.062Z,2.20
2022-10-20T14:36:28.695Z,2.55
2022-10-20T14:39:00.599Z,1.83
2022-10-20T14:41:35.874Z,2.10
2022-10-20T14:44:10.105Z,2.10
2022-10-20T14:46:41.634Z,2.05
2022-10-20T14:49:27.890Z,2.28
2022-10-20T14:52:05.218Z,2.28
2022-10-20T14:54:36.651Z,2.30
2022-10-20T14:57:10.169Z,1.83
2022-10-20T15:00:03.930Z,2.05
2022-10-20T15:02:40.541Z,2.30
2022-10-20T15:05:26.098Z,2.05
2022-10-20T15:07:55.906Z,2.20
2022-10-20T15:10:26.145Z,2.17
2022-10-20T15:12:55.718Z,1.90
2022-10-20T15:15:29.392Z,2.65
2022-10-20T15:18:18.740Z,3.05
2022-10-20T15:20:47.887Z,1.95
2022-10-20T15:23:17.940Z,2.28
2022-10-20T15:26:03.084Z,2.30
2022-10-20T15:28:48.367Z,2.28
2022-10-20T15:31:25.709Z,2.67
2022-10-20T15:33:54.646Z,2.20
2022-10-20T15:36:31.819Z,2.50
2022-10-20T15:39:00.041Z,2.58
2022-10-20T15:41:35.092Z,2.22
2022-10-20T15:44:19.651Z,2.35
2022-10-20T15:46:46.918Z,3.72
2022-10-20T15:49:14.373Z,5.30
2022-10-20T15:51:45.241Z,3.70
2022-10-20T15:54:16.725Z,4.25
2022-10-20T15:56:44.254Z,5.35
2022-10-20T15:59:11.449Z,3.50
2022-10-20T16:01:38.644Z,2.70
2022-10-20T16:04:28.718Z,2.67
2022-10-20T16:06:58.996Z,2.50
2022-10-20T16:09:27.390Z,2.70
2022-10-20T16:11:54.491Z,2.70
2022-10-20T16:14:21.466Z,4.03
2022-10-20T16:16:48.606Z,3.83
2022-10-20T16:19:15.654Z,4.20
2022-10-20T16:21:42.841Z,4.50
2022-10-20T16:24:11.137Z,4.18
2022-10-20T16:26:38.042Z,4.70
2022-10-20T16:29:04.933Z,4.93
2022-10-20T16:31:31.838Z,4.55
2022-10-20T16:34:00.320Z,3.70
2022-10-20T16:36:27.425Z,3.70
2022-10-20T16:38:57.848Z,4.00
2022-10-20T16:41:24.878Z,2.80
2022-10-20T16:43:52.132Z,2.90
2022-10-20T16:46:19.138Z,2.47
2022-10-20T16:48:47.835Z,2.20
2022-10-20T16:51:16.388Z,2.40
2022-10-20T16:53:43.564Z,2.42
2022-10-20T16:56:10.964Z,2.47
2022-10-20T16:58:39.064Z,2.70
2022-10-20T17:01:13.421Z,2.72
2022-10-20T17:03:51.628Z,3.28
2022-10-20T17:06:22.431Z,2.63
2022-10-20T17:08:49.609Z,2.88
2022-10-20T17:11:21.614Z,3.15
2022-10-20T17:13:48.654Z,3.47
2022-10-20T17:16:28.442Z,3.10
2022-10-20T17:18:57.746Z,3.35
2022-10-20T17:21:25.647Z,3.70
2022-10-20T17:23:52.600Z,3.75
2022-10-20T17:26:23.121Z,3.22
2022-10-20T17:28:52.131Z,3.20
2022-10-20T17:31:19.321Z,3.90
2022-10-20T17:33:47.252Z,3.70
2022-10-20T17:36:15.248Z,3.75
2022-10-20T17:38:43.198Z,4.00
2022-10-20T17:41:13.353Z,3.42
2022-10-20T17:43:40.653Z,3.30
2022-10-20T17:46:17.873Z,3.40
2022-10-20T17:48:45.682Z,3.80
2022-10-20T17:51:26.875Z,3.22
2022-10-20T17:53:58.076Z,3.17
2022-10-20T17:56:32.020Z,4.60
2022-10-20T17:59:02.984Z,3.40
2022-10-20T18:01:33.380Z,2.58
2022-10-20T18:04:10.959Z,3.10
2022-10-20T18:06:38.882Z,2.97
2022-10-20T18:09:12.425Z,2.85
2022-10-20T18:11:44.228Z,2.63
2022-10-20T18:14:11.234Z,2.90
2022-10-20T18:16:40.578Z,3.10
2022-10-20T18:19:09.094Z,2.78
2022-10-20T18:21:36.091Z,2.95
2022-10-20T18:24:07.238Z,2.55
2022-10-20T18:26:37.137Z,3.33
2022-10-20T18:29:07.720Z,3.60
2022-10-20T18:31:36.516Z,2.90
2022-10-20T18:34:07.809Z,3.65
2022-10-20T18:36:40.369Z,3.70
2022-10-20T18:39:10.830Z,3.63
2022-10-20T18:41:40.305Z,3.38
2022-10-20T18:44:18.283Z,3.03
2022-10-20T18:46:46.811Z,3.10
2022-10-20T18:49:16.398Z,2.92
2022-10-20T18:51:46.982Z,3.33
2022-10-20T18:54:14.946Z,3.75
2022-10-20T18:56:42.961Z,5.97
2022-10-20T18:59:13.848Z,3.65
2022-10-20T19:01:41.812Z,3.50
2022-10-20T19:04:10.749Z,3.60
2022-10-20T19:06:41.635Z,3.17
2022-10-20T19:09:14.478Z,3.20
2022-10-20T19:11:42.339Z,3.17
2022-10-20T19:14:10.498Z,3.47
2022-10-20T19:16:39.339Z,3.65
2022-10-20T19:19:08.440Z,3.50
2022-10-20T19:21:36.344Z,3.85
2022-10-20T19:24:19.875Z,3.47
2022-10-20T19:27:24.400Z,3.17
2022-10-20T19:29:44.758Z,2.90
2022-10-20T19:32:12.211Z,3.40
2022-10-20T19:34:40.720Z,3.35
2022-10-20T19:37:09.555Z,3.72
2022-10-20T19:39:40.956Z,3.40
2022-10-20T19:42:09.224Z,3.45
2022-10-20T19:44:36.524Z,3.30
2022-10-20T19:47:04.934Z,3.47
2022-10-20T19:49:31.995Z,3.28
2022-10-20T19:51:59.140Z,3.67
2022-10-20T19:54:26.252Z,3.88
2022-10-20T19:56:53.284Z,4.03
2022-10-20T19:59:20.655Z,3.33
2022-10-20T20:01:49.654Z,9.82
2022-10-20T20:04:16.588Z,4.07
2022-10-20T20:06:43.535Z,3.88
2022-10-20T20:09:12.207Z,3.72
2022-10-20T20:11:40.051Z,4.72
2022-10-20T20:14:14.871Z,4.50
2022-10-20T20:16:59.222Z,4.50
2022-10-20T20:19:26.274Z,4.70
2022-10-20T20:21:53.772Z,4.00
2022-10-20T20:24:20.840Z,4.30
2022-10-20T20:26:48.048Z,4.30
2022-10-20T20:29:15.292Z,4.60
2022-10-20T20:31:42.276Z,5.20
2022-10-20T20:34:09.212Z,4.50
2022-10-20T20:36:36.198Z,4.40
2022-10-20T20:39:03.410Z,3.72
2022-10-20T20:41:31.273Z,4.20
2022-10-20T20:43:59.700Z,4.22
2022-10-20T20:46:30.978Z,4.32
2022-10-20T20:48:58.375Z,4.40
2022-10-20T20:51:26.092Z,5.30
2022-10-20T20:53:53.020Z,4.82
2022-10-20T20:56:21.977Z,4.63
2022-10-20T20:58:54.926Z,4.95
2022-10-20T21:01:27.582Z,4.72
2022-10-20T21:04:04.590Z,4.63
2022-10-20T21:06:49.506Z,4.40
2022-10-20T21:09:19.915Z,4.88
2022-10-20T21:11:48.844Z,5.18
2022-10-20T21:14:15.828Z,5.53
2022-10-20T21:16:42.756Z,5.68
2022-10-20T21:19:10.617Z,5.95
2022-10-20T21:21:43.605Z,5.63
2022-10-20T21:24:12.751Z,5.00
2022-10-20T21:26:39.948Z,5.32
2022-10-20T21:29:06.991Z,5.28
2022-10-20T21:31:33.930Z,5.15
2022-10-20T21:34:04.249Z,4.72
2022-10-20T21:36:37.763Z,5.63
2022-10-20T21:39:08.654Z,5.40
2022-10-20T21:41:36.408Z,5.00
2022-10-20T21:44:06.359Z,5.50
2022-10-20T21:46:40.288Z,5.10
2022-10-20T21:49:11.107Z,5.40
2022-10-20T21:51:45.770Z,5.63
2022-10-20T21:56:52.391Z,6.22
2022-10-20T21:59:25.821Z,7.32
2022-10-20T22:01:56.161Z,8.55
2022-10-20T22:04:27.040Z,8.25
2022-10-20T22:06:55.249Z,8.40
2022-10-20T22:09:22.702Z,7.70
2022-10-20T22:11:55.080Z,6.85
2022-10-20T22:14:23.055Z,7.72
2022-10-20T22:16:50.033Z,7.93
2022-10-20T22:19:20.796Z,8.10
2022-10-20T22:21:50.806Z,8.55
2022-10-20T22:24:18.765Z,8.82
2022-10-20T22:26:46.529Z,8.07
2022-10-20T22:29:13.653Z,7.60
2022-10-20T22:31:41.430Z,7.72
2022-10-20T22:34:09.317Z,8.15
2022-10-20T22:36:36.960Z,8.18
2022-10-20T22:39:05.413Z,6.68
2022-10-20T22:41:32.544Z,6.55
2022-10-20T22:43:59.439Z,7.25
2022-10-20T22:46:26.579Z,6.57
2022-10-20T22:48:53.754Z,6.70
2022-10-20T22:51:20.693Z,6.38
2022-10-20T22:53:47.604Z,6.35
2022-10-20T22:56:19.188Z,6.63
2022-10-20T22:58:47.696Z,7.13
2022-10-20T23:01:18.937Z,6.80
2022-10-20T23:03:46.807Z,6.47
2022-10-20T23:06:21.093Z,6.82
2022-10-20T23:08:51.599Z,6.38
2022-10-20T23:11:20.294Z,5.85
2022-10-20T23:13:48.177Z,6.22
2022-10-20T23:16:15.363Z,5.60
2022-10-20T23:18:42.561Z,5.13
2022-10-20T23:21:09.739Z,5.65
2022-10-20T23:23:37.993Z,4.93
2022-10-20T23:26:08.315Z,5.22
2022-10-20T23:28:36.763Z,4.65
2022-10-20T23:31:13.993Z,4.75
2022-10-20T23:33:43.359Z,4.65
2022-10-20T23:36:12.512Z,4.25
2022-10-20T23:38:39.429Z,4.32
2022-10-20T23:41:06.660Z,4.43
2022-10-20T23:43:34.277Z,4.40
2022-10-20T23:46:01.199Z,4.25
2022-10-20T23:48:28.527Z,4.10
2022-10-20T23:50:56.127Z,4.20
2022-10-20T23:53:23.331Z,4.65
2022-10-20T23:55:50.230Z,4.30
2022-10-20T23:58:21.925Z,5.13
